Bandana, KY

4:33 PM CDT on May 24, 2015 (GMT -0500)
Grahamville | | Change Station
CLOSE
Current Station
Personal Weather Station
Location: West Paducah, KY
Elevation: 390 ft
Nearby Weather Stations
Active Advisory: Tornado Watch, Lake Wind Advisory

Elev 390 ft 37.11 °N, 88.78 °W | Updated 4 minutes ago

Partly Cloudy
Partly Cloudy
83.2 °F
Feels Like 86 °F
N
14.0
Wind Variable Wind from NW
Gusts 19.0 mph

Today
High -- | Low -- °F
--% Chance of Precip.
Yesterday
High -- | Low -- °F
Precip. -- in
5:41 AM 8:04 PM
Waxing Crescent, 42% visible
Pressure 30.00 in
Visibility 10.0 miles
Clouds Scattered Clouds 5000 ft
Mostly Cloudy 6500 ft
Mostly Cloudy 9000 ft
Heat Index 86 °F
Dew Point 67 °F
Humidity 59%
Rainfall 0.00 in
Snow Depth Not available.
UV 3 out of 12
Pollen 8.10 out of 12
Air Quality Not available.
Flu Activity Sporadic
METAR KM30 242115Z AUTO 15010KT 10SM SCT050 BKN065 BKN090 29/19 A3000 RMK AO2 T02910185

More Conditions Fewer Conditions

Pressure 30.00 in
Visibility 10.0 miles
Clouds Scattered Clouds 5000 ft
Mostly Cloudy 6500 ft
Mostly Cloudy 9000 ft
Heat Index 86 °F
Dew Point 67 °F
Humidity 59%
Rainfall 0.00 in
Snow Depth Not available.
UV 3 out of 12
Pollen 8.10 out of 12
Air Quality Not available.
Flu Activity Sporadic
METAR KM30 242115Z AUTO 15010KT 10SM SCT050 BKN065 BKN090 29/19 A3000 RMK AO2 T02910185

More Conditions Fewer Conditions

10-Day Weather Forecast

Almanac

Astronomy

May. 24, 2015 Rise Set
Actual Time
Civil Twilight
Nautical Twilight
Astronomical Twilight
Moon
Length of Visible Light
Length of Day
Tomorrow will be .
, % of the Moon is Illuminated

Today's Extremes

State Highs State Lows

Community

WunderPhotos

Upload Photos

1,823,872 photos uploaded!

WunderBlogs® & News

Nearby

Air Quality

  Air Quality AQ Index Pollutant
Not available.

Snow Depth

Station Depth Elevation

Earthquake Activity

City Distance Mag. Time & Date
Minimum magnitude displayed is 2.5.

Coastal Water Temperatures

Place Temperature

Stations

Nearby Weather Stations

Station Location Temp. Windchill Dew Point Humidity Wind Precip. Elev Updated Type
                   
Tornado Watch
Statement as of 4:24 PM CDT on May 24, 2015

Tornado Watch 205 remains in effect until 1000 PM CDT for the
following locations

KY
. Kentucky counties included are

Ballard Carlisle Fulton
Hickman




Lake Wind Advisory
Statement as of 9:44 AM CDT on May 24, 2015

... Lake Wind Advisory in effect until 7 PM CDT this evening...

The National Weather Service in Paducah has issued a lake Wind
Advisory... which is in effect until 7 PM CDT this evening.

* Timing... late this morning through early this evening.

* Winds... sustained from 15 to 20 mph with gusts around 25 mph.

* Impacts... impacts will be high due to the Holiday weekend
boating activity.

Precautionary/preparedness actions...

A lake Wind Advisory indicates that winds will cause rough chop
on area lakes. Small boats will be especially prone to capsizing.



York